createdAt,value
2018-01-25T00:00:11.758Z,3.00
2018-01-25T00:02:40.278Z,3.60
2018-01-25T00:05:08.766Z,4.17
2018-01-25T00:07:37.302Z,4.17
2018-01-25T00:10:05.862Z,3.70
2018-01-25T00:12:35.173Z,4.60
2018-01-25T00:15:03.737Z,3.23
2018-01-25T00:17:33.068Z,3.30
2018-01-25T00:20:01.625Z,3.00
2018-01-25T00:22:32.818Z,3.47
2018-01-25T00:25:01.359Z,5.30
2018-01-25T00:27:30.673Z,3.57
2018-01-25T00:29:59.218Z,4.43
2018-01-25T00:32:27.745Z,3.07
2018-01-25T00:34:56.293Z,3.73
2018-01-25T00:37:25.597Z,4.77
2018-01-25T00:39:54.920Z,3.33
2018-01-25T00:42:23.418Z,4.73
2018-01-25T00:44:51.960Z,4.37
2018-01-25T00:47:21.255Z,5.03
2018-01-25T00:49:49.779Z,3.63
2018-01-25T00:52:18.324Z,4.50
2018-01-25T00:54:47.627Z,5.60
2018-01-25T00:57:16.892Z,3.50
2018-01-25T00:59:45.410Z,4.07
2018-01-25T01:02:14.715Z,5.10
2018-01-25T01:04:44.021Z,3.97
2018-01-25T01:07:13.334Z,2.90
2018-01-25T01:09:41.920Z,5.23
2018-01-25T01:12:10.449Z,3.10
2018-01-25T01:14:39.181Z,4.30
2018-01-25T01:17:07.726Z,4.70
2018-01-25T01:19:36.260Z,2.83
2018-01-25T01:22:04.850Z,3.63
2018-01-25T01:24:33.402Z,5.30
2018-01-25T01:27:02.665Z,3.47
2018-01-25T01:29:31.225Z,5.00
2018-01-25T01:31:59.755Z,3.70
2018-01-25T01:34:29.062Z,4.37
2018-01-25T01:36:58.366Z,4.70
2018-01-25T01:39:27.657Z,3.00
2018-01-25T01:41:56.969Z,4.90
2018-01-25T01:44:25.545Z,3.87
2018-01-25T01:46:54.862Z,4.57
2018-01-25T01:49:23.357Z,4.07
2018-01-25T01:51:51.905Z,4.47
2018-01-25T01:54:21.216Z,5.50
2018-01-25T01:56:49.764Z,5.10
2018-01-25T01:59:18.372Z,3.83
2018-01-25T02:01:46.954Z,5.20
2018-01-25T02:04:16.273Z,4.27
2018-01-25T02:06:44.792Z,4.10
2018-01-25T02:09:13.325Z,4.50
2018-01-25T02:11:42.592Z,3.77
2018-01-25T02:14:11.155Z,3.33
2018-01-25T02:16:39.687Z,3.50
2018-01-25T02:19:08.999Z,3.40
2018-01-25T02:21:37.550Z,2.90
2018-01-25T02:24:06.103Z,4.27
2018-01-25T02:26:34.503Z,3.83
2018-01-25T02:29:03.051Z,3.60
2018-01-25T02:31:31.619Z,4.90
2018-01-25T02:34:00.178Z,4.77
2018-01-25T02:36:29.500Z,5.20
2018-01-25T02:38:58.042Z,5.47
2018-01-25T02:41:27.362Z,3.80
2018-01-25T02:43:56.674Z,5.13
2018-01-25T02:46:25.205Z,5.43
2018-01-25T02:48:53.715Z,6.10
2018-01-25T02:51:23.032Z,4.00
2018-01-25T02:53:52.358Z,4.87
2018-01-25T02:56:20.845Z,4.57
2018-01-25T02:58:49.389Z,3.67
2018-01-25T03:01:18.699Z,7.33
2018-01-25T03:03:47.174Z,5.47
2018-01-25T03:06:16.493Z,4.60
2018-01-25T03:08:45.021Z,3.70
2018-01-25T03:11:13.593Z,3.77
2018-01-25T03:13:42.108Z,4.67
2018-01-25T03:16:11.422Z,6.13
2018-01-25T03:18:40.704Z,5.77
2018-01-25T03:21:09.245Z,5.07
2018-01-25T03:23:37.817Z,5.20
2018-01-25T03:26:06.366Z,6.83
2018-01-25T03:28:35.674Z,5.97
2018-01-25T03:31:04.986Z,4.70
2018-01-25T03:33:33.521Z,4.90
2018-01-25T03:36:02.058Z,4.43
2018-01-25T03:38:30.601Z,4.73
2018-01-25T03:40:59.918Z,4.43
2018-01-25T03:43:29.255Z,4.53
2018-01-25T03:45:57.816Z,4.40
2018-01-25T03:48:26.534Z,3.53
2018-01-25T03:50:55.078Z,5.47
2018-01-25T03:53:24.415Z,3.57
2018-01-25T03:55:52.910Z,7.37
2018-01-25T03:58:21.428Z,3.97
2018-01-25T04:00:50.797Z,4.87
2018-01-25T04:03:19.300Z,6.33
2018-01-25T04:05:48.057Z,4.13
2018-01-25T04:08:16.594Z,3.60
2018-01-25T04:10:45.093Z,4.57
2018-01-25T04:13:13.626Z,5.93
2018-01-25T04:15:42.166Z,4.27
2018-01-25T04:18:10.670Z,4.23
2018-01-25T04:20:39.246Z,3.90
2018-01-25T04:23:07.781Z,5.17
2018-01-25T04:25:37.063Z,4.60
2018-01-25T04:28:05.602Z,6.37
2018-01-25T04:36:19.149Z,4.70
2018-01-25T04:38:47.670Z,3.63
2018-01-25T04:41:16.224Z,4.97
2018-01-25T04:43:44.798Z,4.70
2018-01-25T04:46:13.323Z,3.70
2018-01-25T04:48:41.834Z,5.33
2018-01-25T04:51:11.161Z,4.97
2018-01-25T04:53:39.535Z,6.03
2018-01-25T04:56:08.090Z,4.77
2018-01-25T04:58:36.618Z,7.00
2018-01-25T05:01:05.190Z,3.97
2018-01-25T05:03:33.727Z,4.47
2018-01-25T05:06:02.298Z,4.07
2018-01-25T05:08:30.842Z,4.17
2018-01-25T05:10:59.334Z,7.13
2018-01-25T05:13:27.898Z,5.87
2018-01-25T05:15:56.267Z,4.07
2018-01-25T05:18:24.586Z,3.53
2018-01-25T05:20:52.970Z,5.47
2018-01-25T05:23:21.332Z,6.40
2018-01-25T05:25:49.817Z,5.63
2018-01-25T05:28:18.349Z,4.27
2018-01-25T05:30:47.633Z,3.70
2018-01-25T05:33:15.978Z,5.10
2018-01-25T05:35:44.570Z,4.03
2018-01-25T05:38:13.126Z,5.00
2018-01-25T05:40:41.667Z,4.37
2018-01-25T05:43:10.996Z,6.10
2018-01-25T05:45:39.519Z,4.70
2018-01-25T05:48:08.014Z,4.03
2018-01-25T05:50:37.568Z,3.37
2018-01-25T05:53:07.125Z,7.33
2018-01-25T05:55:36.679Z,4.97
2018-01-25T05:58:06.241Z,4.77
2018-01-25T06:00:35.788Z,5.10
2018-01-25T06:03:05.328Z,5.23
2018-01-25T06:05:34.866Z,3.30
2018-01-25T06:08:04.417Z,5.57
2018-01-25T06:10:33.984Z,3.60
2018-01-25T06:13:03.535Z,4.20
2018-01-25T06:15:33.102Z,4.03
2018-01-25T06:18:02.669Z,4.57
2018-01-25T06:20:32.213Z,5.50
2018-01-25T06:23:01.772Z,6.20
2018-01-25T06:25:31.369Z,4.90
2018-01-25T06:28:00.928Z,4.97
2018-01-25T06:30:30.521Z,7.60
2018-01-25T06:33:00.058Z,5.33
2018-01-25T06:35:29.614Z,5.27
2018-01-25T06:37:59.145Z,4.60
2018-01-25T06:40:28.704Z,4.30
2018-01-25T06:42:58.428Z,6.17
2018-01-25T06:45:27.992Z,6.53
2018-01-25T06:47:57.572Z,5.47
2018-01-25T06:50:27.161Z,4.83
2018-01-25T06:52:56.713Z,88.77
2018-01-25T06:55:26.271Z,23.73
2018-01-25T06:57:54.799Z,5.77
2018-01-25T07:00:24.126Z,9.00
2018-01-25T07:02:52.655Z,42.27
2018-01-25T07:05:21.218Z,6.73
2018-01-25T07:07:49.771Z,6.00
2018-01-25T07:10:18.328Z,6.77
2018-01-25T07:12:47.796Z,4.33
2018-01-25T07:15:16.334Z,6.03
2018-01-25T07:17:44.875Z,3.63
2018-01-25T07:20:14.179Z,4.47
2018-01-25T07:22:42.976Z,5.37
2018-01-25T07:25:12.319Z,5.80
2018-01-25T07:27:40.826Z,3.83
2018-01-25T07:30:09.371Z,4.67
2018-01-25T07:32:37.920Z,6.07
2018-01-25T07:35:06.403Z,5.27
2018-01-25T07:37:34.950Z,5.53
2018-01-25T07:40:03.549Z,6.10
2018-01-25T07:42:32.083Z,4.97
2018-01-25T07:45:00.616Z,4.03
2018-01-25T07:47:29.162Z,4.83
2018-01-25T07:49:57.686Z,3.27
2018-01-25T07:52:26.231Z,4.97
2018-01-25T07:54:54.799Z,4.33
2018-01-25T08:00:40.520Z,5.53
2018-01-25T08:03:09.164Z,4.63
2018-01-25T08:05:38.554Z,9.17
2018-01-25T08:08:07.793Z,5.97
2018-01-25T08:10:36.278Z,5.17
2018-01-25T08:13:10.302Z,8.27
2018-01-25T08:15:38.783Z,14.50
2018-01-25T08:18:07.264Z,7.73
2018-01-25T08:20:35.718Z,11.67
2018-01-25T08:23:04.304Z,11.40
2018-01-25T08:25:32.816Z,70.43
2018-01-25T08:28:01.283Z,8.27
2018-01-25T08:30:29.801Z,5.30
2018-01-25T08:32:58.126Z,4.57
2018-01-25T08:35:26.577Z,7.37
2018-01-25T08:37:55.120Z,3.40
2018-01-25T08:40:23.603Z,4.50
2018-01-25T08:42:51.745Z,5.27
2018-01-25T08:45:20.220Z,5.07
2018-01-25T08:47:48.697Z,5.33
2018-01-25T08:50:17.909Z,3.70
2018-01-25T08:52:46.385Z,5.33
2018-01-25T08:55:14.869Z,5.47
2018-01-25T08:57:43.313Z,6.47
2018-01-25T09:00:11.790Z,5.20
2018-01-25T09:02:40.274Z,5.33
2018-01-25T09:05:08.737Z,6.57
2018-01-25T09:07:37.214Z,4.93
2018-01-25T09:10:05.395Z,7.20
2018-01-25T09:12:33.847Z,6.87
2018-01-25T09:15:02.322Z,10.13
2018-01-25T09:17:30.801Z,6.00
2018-01-25T09:19:59.245Z,5.37
2018-01-25T09:22:28.490Z,5.10
2018-01-25T09:24:57.058Z,5.87
2018-01-25T09:27:25.516Z,5.37
2018-01-25T09:29:54.758Z,6.17
2018-01-25T09:32:23.317Z,6.50
2018-01-25T09:34:52.283Z,7.57
2018-01-25T09:37:21.534Z,6.03
2018-01-25T09:39:50.007Z,8.10
2018-01-25T09:42:18.454Z,8.80
2018-01-25T09:44:47.694Z,8.13
2018-01-25T09:47:16.686Z,8.03
2018-01-25T09:49:46.018Z,6.73
2018-01-25T09:52:16.018Z,6.80
2018-01-25T09:54:44.704Z,8.43
2018-01-25T10:00:23.813Z,6.87
2018-01-25T10:02:52.288Z,8.07
2018-01-25T10:05:20.732Z,13.43
2018-01-25T10:07:49.226Z,11.27
2018-01-25T10:10:17.728Z,11.23
2018-01-25T10:12:47.111Z,9.13
2018-01-25T10:15:15.638Z,18.30
2018-01-25T10:17:50.163Z,11.40
2018-01-25T10:20:19.465Z,9.83
2018-01-25T10:22:48.818Z,12.13
2018-01-25T10:25:17.370Z,8.53
2018-01-25T10:27:46.086Z,8.70
2018-01-25T10:30:14.662Z,7.87
2018-01-25T10:32:43.154Z,6.27
2018-01-25T10:35:11.693Z,8.77
2018-01-25T10:37:40.270Z,5.87
2018-01-25T10:40:09.580Z,8.27
2018-01-25T10:42:42.318Z,6.47
2018-01-25T10:45:10.897Z,7.07
2018-01-25T10:47:39.435Z,6.00
2018-01-25T10:50:08.015Z,8.07
2018-01-25T10:52:36.562Z,5.67
2018-01-25T10:55:05.552Z,5.60
2018-01-25T10:57:34.294Z,5.20
2018-01-25T11:00:08.177Z,8.20
2018-01-25T11:02:41.829Z,6.10
2018-01-25T11:05:10.337Z,6.00
2018-01-25T11:07:44.961Z,4.83
2018-01-25T11:10:13.582Z,5.43
2018-01-25T11:12:42.179Z,4.77
2018-01-25T11:15:28.986Z,4.80
2018-01-25T11:17:58.474Z,7.10
2018-01-25T11:20:27.105Z,5.27
2018-01-25T11:22:56.424Z,5.60
2018-01-25T11:25:39.538Z,5.90
2018-01-25T11:28:08.167Z,6.83
2018-01-25T11:30:36.732Z,4.90
2018-01-25T11:33:06.047Z,7.40
2018-01-25T11:35:34.592Z,7.50
2018-01-25T11:38:03.134Z,5.30
2018-01-25T11:40:51.627Z,6.63
2018-01-25T11:43:20.157Z,5.27
2018-01-25T11:45:48.650Z,7.83
2018-01-25T11:48:17.221Z,6.07
2018-01-25T11:50:45.776Z,7.00
2018-01-25T11:53:15.072Z,5.37
2018-01-25T11:55:43.638Z,6.07
2018-01-25T11:58:12.186Z,5.90
2018-01-25T12:00:40.880Z,5.00
2018-01-25T12:03:09.449Z,6.57
2018-01-25T12:05:38.022Z,6.70
2018-01-25T12:08:06.652Z,7.00
2018-01-25T12:10:35.190Z,8.93
2018-01-25T12:13:03.768Z,5.87
2018-01-25T12:15:37.597Z,6.60
2018-01-25T12:18:06.232Z,4.80
2018-01-25T12:20:35.481Z,7.07
2018-01-25T12:23:04.080Z,11.37
2018-01-25T12:25:32.664Z,10.07
2018-01-25T12:28:01.163Z,6.63
2018-01-25T12:30:29.734Z,8.57
2018-01-25T12:32:58.297Z,10.07
2018-01-25T12:35:27.893Z,5.73
2018-01-25T12:38:20.457Z,6.93
2018-01-25T12:40:48.998Z,8.33
2018-01-25T12:43:17.561Z,6.07
2018-01-25T12:45:46.136Z,7.10
2018-01-25T12:48:14.690Z,6.47
2018-01-25T12:50:43.266Z,6.20
2018-01-25T12:53:12.622Z,6.20
2018-01-25T12:55:45.590Z,6.37
2018-01-25T12:58:14.133Z,5.63
2018-01-25T13:00:42.652Z,7.43
2018-01-25T13:03:16.260Z,6.47
2018-01-25T13:05:45.601Z,7.10
2018-01-25T13:08:19.557Z,6.30
2018-01-25T13:10:48.312Z,5.30
2018-01-25T13:13:19.034Z,5.87
2018-01-25T13:15:48.630Z,5.10
2018-01-25T13:18:17.165Z,6.30
2018-01-25T13:20:45.687Z,5.80
2018-01-25T13:23:14.201Z,5.53
2018-01-25T13:25:42.772Z,5.63
2018-01-25T13:28:11.298Z,5.90
2018-01-25T13:30:39.821Z,4.57
2018-01-25T13:33:13.954Z,5.37
2018-01-25T13:35:43.265Z,4.63
2018-01-25T13:38:11.876Z,4.87
2018-01-25T13:40:40.577Z,3.53
2018-01-25T13:43:09.975Z,3.77
2018-01-25T13:45:38.518Z,3.60
2018-01-25T13:48:07.096Z,4.87
2018-01-25T13:50:47.766Z,4.70
2018-01-25T13:53:16.351Z,8.93
2018-01-25T13:55:44.896Z,12.40
2018-01-25T13:58:13.443Z,6.77
2018-01-25T14:00:41.402Z,4.97
2018-01-25T14:03:09.957Z,4.90
2018-01-25T14:05:38.481Z,6.50
2018-01-25T14:08:07.110Z,5.40
2018-01-25T14:10:35.650Z,4.13
2018-01-25T14:13:07.942Z,4.70
2018-01-25T14:15:44.967Z,3.10
2018-01-25T14:18:13.579Z,2.93
2018-01-25T14:20:42.142Z,3.00
2018-01-25T14:23:10.753Z,3.93
2018-01-25T14:25:40.164Z,3.83
2018-01-25T14:28:10.727Z,4.23
2018-01-25T14:30:43.688Z,8.33
2018-01-25T14:33:13.050Z,5.40
2018-01-25T14:35:41.676Z,3.70
2018-01-25T14:38:11.066Z,3.70
2018-01-25T14:40:39.718Z,4.63
2018-01-25T14:43:17.895Z,9.53
2018-01-25T14:45:46.546Z,4.70
2018-01-25T14:48:15.168Z,5.37
2018-01-25T14:50:43.849Z,7.17
2018-01-25T14:53:12.624Z,6.77
2018-01-25T14:55:41.977Z,7.90
2018-01-25T14:58:10.610Z,6.20
2018-01-25T15:00:39.272Z,9.87
2018-01-25T15:03:07.913Z,7.57
2018-01-25T15:05:36.532Z,7.90
2018-01-25T15:08:05.187Z,6.33
2018-01-25T15:10:33.798Z,9.47
2018-01-25T15:13:02.458Z,6.13
2018-01-25T15:15:31.079Z,9.00
2018-01-25T15:17:59.662Z,6.50
2018-01-25T15:20:28.319Z,7.63
2018-01-25T15:22:56.950Z,8.67
2018-01-25T15:25:41.768Z,7.77
2018-01-25T15:28:10.356Z,6.37
2018-01-25T15:30:38.980Z,6.97
2018-01-25T15:33:08.369Z,6.27
2018-01-25T15:35:37.779Z,8.97
2018-01-25T15:38:07.158Z,7.17
2018-01-25T15:40:35.781Z,7.30
2018-01-25T15:43:05.142Z,6.10
2018-01-25T15:45:33.768Z,5.67
2018-01-25T15:48:02.394Z,9.57
2018-01-25T15:50:30.945Z,9.87
2018-01-25T15:52:59.467Z,12.93
2018-01-25T15:55:28.008Z,8.20
2018-01-25T15:57:56.557Z,10.63
2018-01-25T16:00:25.049Z,9.00
2018-01-25T16:02:54.308Z,9.10
2018-01-25T16:05:22.791Z,7.47
2018-01-25T16:07:51.243Z,9.10
2018-01-25T16:10:19.717Z,9.50
2018-01-25T16:12:48.194Z,7.40
2018-01-25T16:15:16.641Z,12.47
2018-01-25T16:17:45.129Z,14.27
2018-01-25T16:20:13.604Z,19.87
2018-01-25T16:22:42.061Z,12.40
2018-01-25T16:25:10.551Z,11.47
2018-01-25T16:27:39.034Z,16.17
2018-01-25T16:30:07.207Z,11.13
2018-01-25T16:32:35.738Z,9.77
2018-01-25T16:35:04.280Z,11.53
2018-01-25T16:37:33.621Z,11.63
2018-01-25T16:40:02.145Z,9.27
2018-01-25T16:42:30.702Z,11.50
2018-01-25T16:44:59.204Z,9.60
2018-01-25T16:47:29.809Z,6.23
2018-01-25T16:49:58.372Z,8.87
2018-01-25T16:52:27.862Z,9.43
2018-01-25T16:54:57.218Z,7.53
2018-01-25T16:57:39.151Z,10.00
2018-01-25T17:00:08.502Z,9.43
2018-01-25T17:02:37.018Z,8.10
2018-01-25T17:05:05.569Z,8.30
2018-01-25T17:07:34.163Z,13.50
2018-01-25T17:10:02.935Z,33.27
2018-01-25T17:12:31.514Z,22.93
2018-01-25T17:15:00.082Z,19.53
2018-01-25T17:17:28.630Z,20.73
2018-01-25T17:19:57.959Z,36.77
2018-01-25T17:22:26.514Z,26.87
2018-01-25T17:24:55.083Z,23.57
2018-01-25T17:27:23.582Z,20.90
2018-01-25T17:29:52.941Z,22.57
2018-01-25T17:32:21.515Z,16.30
2018-01-25T17:34:50.021Z,19.47
2018-01-25T17:37:18.556Z,20.27
2018-01-25T17:39:47.101Z,15.57
2018-01-25T17:42:15.616Z,18.10
2018-01-25T17:44:44.154Z,17.03
2018-01-25T17:47:12.730Z,15.77
2018-01-25T17:49:41.256Z,18.43
2018-01-25T17:52:09.822Z,21.83
2018-01-25T17:54:39.130Z,22.77
2018-01-25T17:57:08.453Z,20.20
2018-01-25T17:59:37.102Z,26.30
2018-01-25T18:02:05.632Z,20.27
2018-01-25T18:04:34.161Z,18.57
2018-01-25T18:07:02.725Z,30.00
2018-01-25T18:09:31.265Z,24.77
2018-01-25T18:11:59.818Z,33.07
2018-01-25T18:14:28.374Z,27.37
2018-01-25T18:16:56.893Z,36.27
2018-01-25T18:19:26.221Z,41.37
2018-01-25T18:21:54.776Z,26.67
2018-01-25T18:24:24.063Z,27.70
2018-01-25T18:26:52.642Z,28.17
2018-01-25T18:29:21.206Z,32.30
2018-01-25T18:31:50.782Z,34.70
2018-01-25T18:34:20.198Z,36.97
2018-01-25T18:36:49.760Z,27.87
2018-01-25T18:39:19.342Z,23.53
2018-01-25T18:41:48.951Z,17.00
2018-01-25T18:44:18.709Z,21.63
2018-01-25T18:46:48.340Z,25.20
2018-01-25T18:49:17.913Z,27.37
2018-01-25T18:51:47.464Z,24.87
2018-01-25T18:54:17.026Z,26.33
2018-01-25T18:56:46.701Z,40.63
2018-01-25T18:59:16.261Z,29.67
2018-01-25T19:01:45.825Z,25.47
2018-01-25T19:04:15.408Z,22.20
2018-01-25T19:06:45.041Z,26.07
2018-01-25T19:09:14.601Z,78.63
2018-01-25T19:11:44.165Z,35.33
2018-01-25T19:14:13.741Z,24.77
2018-01-25T19:16:43.297Z,23.93
2018-01-25T19:19:12.878Z,23.70
2018-01-25T19:21:42.473Z,25.87
2018-01-25T19:24:12.030Z,25.63
2018-01-25T19:26:41.611Z,20.83
2018-01-25T19:29:11.197Z,26.73
2018-01-25T19:31:40.763Z,25.93
2018-01-25T19:34:09.159Z,22.33
2018-01-25T19:36:37.727Z,26.27
2018-01-25T19:39:06.054Z,24.37
2018-01-25T19:41:35.386Z,20.47
2018-01-25T19:44:03.942Z,19.37
2018-01-25T19:46:33.254Z,23.90
2018-01-25T19:49:01.905Z,27.60
2018-01-25T19:51:30.398Z,24.10
2018-01-25T19:53:59.731Z,22.00
2018-01-25T19:56:28.355Z,20.87
2018-01-25T19:58:56.865Z,21.57
2018-01-25T20:01:25.404Z,27.53
2018-01-25T20:03:53.958Z,28.23
2018-01-25T20:06:22.473Z,25.03
2018-01-25T20:08:51.071Z,22.77
2018-01-25T20:11:19.641Z,21.63
2018-01-25T20:13:48.143Z,18.13
2018-01-25T20:16:16.682Z,19.40
2018-01-25T20:18:45.254Z,17.13
2018-01-25T20:21:13.798Z,23.27
2018-01-25T20:23:44.362Z,22.27
2018-01-25T20:26:15.931Z,23.33
2018-01-25T20:28:44.485Z,25.30
2018-01-25T20:31:13.863Z,25.83
2018-01-25T20:33:42.459Z,19.73
2018-01-25T20:36:11.026Z,21.57
2018-01-25T20:38:39.568Z,23.57
2018-01-25T20:41:08.144Z,28.00
2018-01-25T20:43:36.721Z,23.17
2018-01-25T20:46:05.257Z,25.57
2018-01-25T20:48:33.781Z,26.03
2018-01-25T20:51:02.312Z,21.47
2018-01-25T20:53:30.860Z,24.63
2018-01-25T20:55:59.378Z,26.37
2018-01-25T20:58:27.968Z,21.33
2018-01-25T21:00:56.512Z,21.97
2018-01-25T21:03:25.090Z,22.40
2018-01-25T21:05:53.640Z,23.57
2018-01-25T21:08:22.998Z,21.13
2018-01-25T21:10:51.226Z,18.63
2018-01-25T21:13:20.010Z,22.07
2018-01-25T21:15:48.572Z,18.40
2018-01-25T21:18:17.090Z,17.67
2018-01-25T21:20:45.678Z,19.63
2018-01-25T21:23:14.403Z,28.17
2018-01-25T21:25:42.928Z,18.50
2018-01-25T21:28:12.247Z,19.67
2018-01-25T21:30:40.806Z,26.07
2018-01-25T21:33:10.131Z,23.73
2018-01-25T21:35:38.694Z,26.50
2018-01-25T21:38:08.014Z,20.83
2018-01-25T21:40:36.515Z,21.53
2018-01-25T21:43:05.065Z,23.23
2018-01-25T21:45:33.644Z,24.00
2018-01-25T21:48:02.902Z,18.67
2018-01-25T21:59:10.997Z,17.03
2018-01-25T22:01:41.054Z,25.00
2018-01-25T22:04:09.650Z,25.40
2018-01-25T22:06:39.234Z,25.77
2018-01-25T22:09:08.534Z,24.13
2018-01-25T22:11:37.951Z,28.67
2018-01-25T22:14:06.580Z,31.87
2018-01-25T22:16:35.152Z,34.40
2018-01-25T22:19:10.557Z,43.03
2018-01-25T22:21:39.118Z,38.43
2018-01-25T22:24:08.528Z,33.70
2018-01-25T22:26:37.067Z,34.07
2018-01-25T22:29:05.651Z,27.90
2018-01-25T22:31:34.235Z,34.63
2018-01-25T22:34:02.833Z,24.27
2018-01-25T22:36:31.361Z,18.77
2018-01-25T22:38:59.908Z,21.37
2018-01-25T22:41:29.238Z,33.13
2018-01-25T22:43:57.818Z,25.10
2018-01-25T22:46:26.357Z,29.63
2018-01-25T22:48:54.926Z,25.13
2018-01-25T22:51:29.559Z,28.30
2018-01-25T22:53:58.119Z,22.50
2018-01-25T22:56:28.970Z,21.43
2018-01-25T23:04:58.914Z,24.53
2018-01-25T23:07:27.527Z,20.50
2018-01-25T23:09:56.107Z,23.10
2018-01-25T23:12:24.608Z,20.83
2018-01-25T23:14:53.185Z,17.60
2018-01-25T23:17:22.550Z,21.03
2018-01-25T23:19:51.066Z,20.37
2018-01-25T23:22:19.634Z,25.33
2018-01-25T23:24:48.206Z,21.10
2018-01-25T23:27:16.744Z,16.90
2018-01-25T23:29:45.298Z,16.63
2018-01-25T23:32:14.621Z,16.70
2018-01-25T23:34:43.146Z,15.73
2018-01-25T23:37:11.721Z,13.73
2018-01-25T23:39:40.265Z,13.50
2018-01-25T23:42:08.820Z,11.10
2018-01-25T23:44:37.379Z,33.63
2018-01-25T23:47:05.958Z,25.10
2018-01-25T23:49:34.488Z,25.37
2018-01-25T23:52:03.786Z,22.57
2018-01-25T23:54:32.358Z,30.00
2018-01-25T23:57:01.648Z,37.50
2018-01-25T23:59:30.262Z,31.83
